createdAt,value
2023-03-04T00:02:43.420Z,8.80
2023-03-04T00:07:45.589Z,8.90
2023-03-04T00:12:49.198Z,8.90
2023-03-04T00:17:51.298Z,8.90
2023-03-04T00:22:53.849Z,8.90
2023-03-04T00:27:57.487Z,8.90
2023-03-04T00:32:59.598Z,8.90
2023-03-04T00:38:01.784Z,8.90
2023-03-04T00:43:05.346Z,8.90
2023-03-04T00:48:07.605Z,9.00
2023-03-04T00:53:10.388Z,9.00
2023-03-04T00:58:13.944Z,8.90
2023-03-04T01:03:16.157Z,8.90
2023-03-04T01:08:18.264Z,8.90
2023-03-04T01:13:21.945Z,9.00
2023-03-04T01:18:24.383Z,9.00
2023-03-04T01:23:26.625Z,9.00
2023-03-04T01:28:30.097Z,8.90
2023-03-04T01:33:32.183Z,8.90
2023-03-04T01:38:34.489Z,9.00
2023-03-04T01:43:38.346Z,9.00
2023-03-04T01:48:41.260Z,8.90
2023-03-04T01:53:44.836Z,8.90
2023-03-04T01:59:09.361Z,8.90
2023-03-04T02:04:12.473Z,8.90
2023-03-04T02:09:16.033Z,8.90
2023-03-04T02:14:20.547Z,8.90
2023-03-04T02:19:35.891Z,8.90
2023-03-04T02:24:44.044Z,8.90
2023-03-04T02:29:47.705Z,8.90
2023-03-04T02:34:50.880Z,8.90
2023-03-04T02:39:53.009Z,8.90
2023-03-04T02:45:01.657Z,8.80
2023-03-04T02:50:04.441Z,8.90
2023-03-04T02:55:07.555Z,8.90
2023-03-04T03:00:12.758Z,8.80
2023-03-04T03:05:19.799Z,8.90
2023-03-04T03:10:24.298Z,8.90
2023-03-04T03:15:30.995Z,8.90
2023-03-04T03:20:35.971Z,8.90
2023-03-04T03:25:42.522Z,8.90
2023-03-04T03:30:48.341Z,8.90
2023-03-04T03:35:50.576Z,8.90
2023-03-04T03:40:52.966Z,8.90
2023-03-04T03:45:56.565Z,8.90
2023-03-04T03:50:58.699Z,8.90
2023-03-04T03:56:00.836Z,8.90
2023-03-04T04:01:04.609Z,8.90
2023-03-04T04:06:07.129Z,8.90
2023-03-04T04:11:10.125Z,9.00
2023-03-04T04:16:13.744Z,8.90
2023-03-04T04:21:15.925Z,8.90
2023-03-04T04:26:18.422Z,8.90
2023-03-04T04:31:22.079Z,8.90
2023-03-04T04:36:24.372Z,8.90
2023-03-04T04:41:29.880Z,8.80
2023-03-04T04:46:33.659Z,8.80
2023-03-04T04:51:37.483Z,8.80
2023-03-04T04:56:39.629Z,8.80
2023-03-04T05:01:43.239Z,8.80
2023-03-04T05:06:45.328Z,8.80
2023-03-04T05:11:47.450Z,8.70
2023-03-04T05:16:51.037Z,8.70
2023-03-04T05:21:53.229Z,8.70
2023-03-04T05:26:55.493Z,8.70
2023-03-04T05:31:59.226Z,8.70
2023-03-04T05:37:01.575Z,8.70
2023-03-04T05:42:03.853Z,8.70
2023-03-04T05:47:07.487Z,8.80
2023-03-04T05:52:12.491Z,8.80
2023-03-04T05:57:14.663Z,8.80
2023-03-04T06:02:18.375Z,8.70
2023-03-04T06:07:20.562Z,8.70
2023-03-04T06:12:22.633Z,8.70
2023-03-04T06:17:26.314Z,8.60
2023-03-04T06:22:29.055Z,8.60
2023-03-04T06:27:31.186Z,8.70
2023-03-04T06:32:34.858Z,8.70
2023-03-04T06:37:37.422Z,8.70
2023-03-04T06:42:40.517Z,8.70
2023-03-04T06:47:44.093Z,8.70
2023-03-04T06:52:46.545Z,8.70
2023-03-04T06:57:48.718Z,8.70
2023-03-04T07:02:54.995Z,8.70
2023-03-04T07:07:57.428Z,8.70
2023-03-04T07:12:59.681Z,8.70
2023-03-04T07:18:03.310Z,8.80
2023-03-04T07:23:05.495Z,8.80
2023-03-04T07:28:07.644Z,8.80
2023-03-04T07:33:11.232Z,8.80
2023-03-04T07:38:13.565Z,8.80
2023-03-04T07:43:15.622Z,8.90
2023-03-04T07:48:19.416Z,9.00
2023-03-04T07:53:21.604Z,9.00
2023-03-04T07:58:23.818Z,9.00
2023-03-04T08:03:29.100Z,9.00
2023-03-04T08:08:31.267Z,9.10
2023-03-04T08:13:33.720Z,9.10
2023-03-04T08:18:37.384Z,9.10
2023-03-04T08:23:39.759Z,9.20
2023-03-04T08:28:42.171Z,9.20
2023-03-04T08:33:46.033Z,9.20
2023-03-04T08:38:48.347Z,9.20
2023-03-04T08:43:50.554Z,9.30
2023-03-04T08:48:54.160Z,9.30
2023-03-04T08:53:56.342Z,9.30
2023-03-04T08:58:59.654Z,9.30
2023-03-04T09:04:03.323Z,9.40
2023-03-04T09:09:05.583Z,9.50
2023-03-04T09:14:07.742Z,9.50
2023-03-04T09:19:11.383Z,9.50
2023-03-04T09:24:14.059Z,9.50
2023-03-04T09:29:16.277Z,9.50
2023-03-04T09:34:19.729Z,9.60
2023-03-04T09:39:21.972Z,9.60
2023-03-04T09:44:28.438Z,9.60
2023-03-04T09:49:32.551Z,9.70
2023-03-04T09:54:55.896Z,9.70
2023-03-04T10:00:10.228Z,9.90
2023-03-04T10:05:19.811Z,10.10
2023-03-04T10:10:29.441Z,10.20
2023-03-04T10:15:36.938Z,10.30
2023-03-04T10:20:51.862Z,10.30
2023-03-04T10:25:54.419Z,10.30
2023-03-04T10:31:01.876Z,10.30
2023-03-04T10:36:22.401Z,10.40
2023-03-04T10:41:28.842Z,10.50
2023-03-04T10:46:32.038Z,10.70
2023-03-04T10:51:43.024Z,11.00
2023-03-04T10:56:55.920Z,11.30
2023-03-04T11:01:58.553Z,11.50
2023-03-04T11:07:02.001Z,11.60
2023-03-04T11:12:11.191Z,11.60
2023-03-04T11:17:21.009Z,11.60
2023-03-04T11:22:27.688Z,11.70
2023-03-04T11:27:44.586Z,11.80
2023-03-04T11:32:49.750Z,11.90
2023-03-04T11:37:59.664Z,12.00
2023-03-04T11:43:07.345Z,12.10
2023-03-04T11:48:18.261Z,12.00
2023-03-04T11:53:36.259Z,11.90
2023-03-04T11:59:17.004Z,11.80
2023-03-04T12:04:40.481Z,11.80
2023-03-04T12:09:56.115Z,12.00
2023-03-04T12:15:10.990Z,12.20
2023-03-04T12:20:40.996Z,12.30
2023-03-04T12:25:53.825Z,12.20
2023-03-04T12:31:14.073Z,12.10
2023-03-04T12:36:30.676Z,12.00
2023-03-04T12:41:43.830Z,11.80
2023-03-04T12:47:14.440Z,11.70
2023-03-04T12:52:27.781Z,11.70
2023-03-04T12:57:40.553Z,11.70
2023-03-04T13:02:57.043Z,11.70
2023-03-04T13:08:08.566Z,11.70
2023-03-04T13:13:38.366Z,11.70
2023-03-04T13:18:44.021Z,11.60
2023-03-04T13:23:46.596Z,11.50
2023-03-04T13:29:10.060Z,11.30
2023-03-04T13:34:48.137Z,11.20
2023-03-04T13:40:51.877Z,11.20
2023-03-04T13:45:55.093Z,11.20
2023-03-04T13:50:58.951Z,11.10
2023-03-04T13:56:35.909Z,11.00
2023-03-04T14:02:03.334Z,10.90
2023-03-04T14:07:19.968Z,10.80
2023-03-04T14:12:22.977Z,10.80
2023-03-04T14:17:31.003Z,10.80
2023-03-04T14:22:39.036Z,10.80
2023-03-04T14:27:41.945Z,10.70
2023-03-04T14:32:48.595Z,10.60
2023-03-04T14:37:58.506Z,10.50
2023-03-04T14:43:04.527Z,10.40
2023-03-04T14:48:19.985Z,10.30
2023-03-04T14:53:25.030Z,10.20
2023-03-04T14:58:29.834Z,10.10
2023-03-04T15:03:36.273Z,10.10
2023-03-04T15:08:41.857Z,10.10
2023-03-04T15:13:51.657Z,10.10
2023-03-04T15:19:01.034Z,10.10
2023-03-04T15:24:05.147Z,10.10
2023-03-04T15:29:14.378Z,10.00
2023-03-04T15:34:20.705Z,10.00
2023-03-04T15:39:23.082Z,10.10
2023-03-04T15:44:26.332Z,10.20
2023-03-04T15:49:30.922Z,10.10
2023-03-04T15:54:33.646Z,9.90
2023-03-04T15:59:36.682Z,9.80
2023-03-04T16:04:40.725Z,9.70
2023-03-04T16:09:58.807Z,9.60
2023-03-04T16:15:01.245Z,9.40
2023-03-04T16:32:33.878Z,9.00
2023-03-04T16:37:50.130Z,8.90
2023-03-04T16:43:13.775Z,8.80
2023-03-04T16:52:27.756Z,8.80
2023-03-04T17:01:44.902Z,8.60
2023-03-04T17:30:19.690Z,8.00
2023-03-04T17:35:23.483Z,8.00
2023-03-04T17:40:25.651Z,8.00
2023-03-04T17:45:27.999Z,8.00
2023-03-04T17:50:31.693Z,8.00
2023-03-04T17:55:33.814Z,8.00
2023-03-04T18:00:36.035Z,8.00
2023-03-04T18:05:39.664Z,8.00
2023-03-04T18:10:41.766Z,7.90
2023-03-04T18:15:43.875Z,8.00
2023-03-04T18:20:47.986Z,8.00
2023-03-04T18:25:51.217Z,8.00
2023-03-04T18:30:53.986Z,8.00
2023-03-04T18:36:02.792Z,7.90
2023-03-04T18:41:06.966Z,7.80
2023-03-04T18:46:11.632Z,7.70
2023-03-04T18:51:15.221Z,7.60
2023-03-04T18:56:21.346Z,7.50
2023-03-04T19:01:24.994Z,7.50
2023-03-04T19:06:30.849Z,7.50
2023-03-04T19:11:33.291Z,7.50
2023-03-04T19:16:35.576Z,7.40
2023-03-04T19:21:39.452Z,7.40
2023-03-04T19:26:41.559Z,7.40
2023-03-04T19:31:43.927Z,7.40
2023-03-04T19:36:47.611Z,7.40
2023-03-04T19:41:50.034Z,7.40
2023-03-04T19:46:52.132Z,7.40
2023-03-04T19:52:01.341Z,7.30
2023-03-04T19:57:03.495Z,7.40
2023-03-04T20:02:05.645Z,7.30
2023-03-04T20:07:10.324Z,7.20
2023-03-04T20:12:12.475Z,7.20
2023-03-04T20:17:14.605Z,7.20
2023-03-04T20:22:18.091Z,7.20
2023-03-04T20:27:22.172Z,7.20
2023-03-04T20:32:24.632Z,7.20
2023-03-04T20:37:28.368Z,7.10
2023-03-04T20:42:30.532Z,7.00
2023-03-04T20:47:32.679Z,7.00
2023-03-04T20:52:36.284Z,7.00
2023-03-04T20:57:38.548Z,6.90
2023-03-04T21:02:40.756Z,6.90
2023-03-04T21:07:44.524Z,6.80
2023-03-04T21:12:46.794Z,6.80
2023-03-04T21:17:48.877Z,6.80
2023-03-04T21:22:52.666Z,6.80
2023-03-04T21:27:55.061Z,6.70
2023-03-04T21:32:57.273Z,6.70
2023-03-04T21:38:00.849Z,6.70
2023-03-04T21:43:03.025Z,6.70
2023-03-04T21:48:05.473Z,6.70
2023-03-04T21:53:09.088Z,6.60
2023-03-04T21:58:11.236Z,6.60
2023-03-04T22:03:13.345Z,6.60
2023-03-04T22:08:19.197Z,6.50
2023-03-04T22:13:21.323Z,6.50
2023-03-04T22:18:23.612Z,6.40
2023-03-04T22:23:27.493Z,6.30
2023-03-04T22:28:30.574Z,6.20
2023-03-04T22:33:32.842Z,6.20
2023-03-04T22:38:36.542Z,6.20
2023-03-04T22:43:38.823Z,6.20
2023-03-04T22:48:41.296Z,6.20
2023-03-04T22:53:44.788Z,6.20
2023-03-04T22:58:48.239Z,6.30
2023-03-04T23:03:50.557Z,6.30
2023-03-04T23:08:56.015Z,6.30
2023-03-04T23:13:58.474Z,6.30
2023-03-04T23:19:00.590Z,6.30
2023-03-04T23:24:06.781Z,6.20
2023-03-04T23:29:11.439Z,6.20
2023-03-04T23:34:13.950Z,6.20
2023-03-04T23:39:24.793Z,6.10
2023-03-04T23:44:27.064Z,6.00
2023-03-04T23:49:29.245Z,5.90
2023-03-04T23:54:32.933Z,5.90
2023-03-04T23:59:35.092Z,5.80
